Time;durP1;ratioP1;P1;durP2;ratioP2;P2;SDS_P1;SDS_P2;PMS_P1;PMS_P2;Temp;Humidity;BMP_temperature;BMP_pressure;BME280_temperature;BME280_humidity;BME280_pressure;Samples;Min_cycle;Max_cycle;Signal;HPM_P1;HPM_P2
2021/03/24 00:00:19;;;;;;;45.10;26.35;;;;;;;9.90;50.56;101806.59;355095;27;1166;-66
2021/03/24 00:00:40;;;;;;;48.45;26.67;;;;;;;9.90;50.83;101816.28;352635;27;71260;-60
2021/03/24 00:00:52;;;;;;;45.60;26.40;;;;;;;9.88;50.83;101805.78;352725;27;70748;-61
2021/03/24 00:01:20;;;;;;;43.60;26.52;;;;;;;9.90;51.07;101796.03;354954;27;1188;-60
2021/03/24 00:01:32;;;;;;;47.75;27.10;;;;;;;9.92;49.81;101802.16;350365;28;93187;-60
2021/03/24 00:01:44;;;;;;;46.65;27.00;;;;;;;9.91;50.30;101805.69;353616;28;1171;-60
2021/03/24 00:01:55;;;;;;;43.63;25.95;;;;;;;9.92;50.33;101807.44;353531;28;2036;-60
2021/03/24 00:02:08;;;;;;;42.63;25.95;;;;;;;9.93;50.83;101809.16;353531;27;1208;-59
2021/03/24 00:02:21;;;;;;;42.13;25.67;;;;;;;9.95;50.61;101806.47;352857;28;22824;-60
2021/03/24 00:02:33;;;;;;;42.25;26.15;;;;;;;9.94;50.60;101805.59;353438;28;1163;-61
2021/03/24 00:02:44;;;;;;;42.95;26.02;;;;;;;9.94;50.70;101808.22;353568;28;1018;-60
2021/03/24 00:02:57;;;;;;;43.47;26.52;;;;;;;9.94;50.57;101800.31;353418;28;1093;-60
2021/03/24 00:03:08;;;;;;;43.50;26.54;;;;;;;9.94;50.86;101802.09;353508;28;1102;-60
2021/03/24 00:03:21;;;;;;;41.55;25.75;;;;;;;9.94;50.87;101800.31;353600;28;1076;-60
2021/03/24 00:03:32;;;;;;;41.22;25.38;;;;;;;9.94;50.93;101805.59;354853;27;1151;-61
2021/03/24 00:03:44;;;;;;;42.22;25.58;;;;;;;9.94;51.01;101804.75;355156;27;1166;-60
2021/03/24 00:03:55;;;;;;;42.53;25.83;;;;;;;9.94;50.89;101804.75;355008;27;1244;-62
2021/03/24 00:04:07;;;;;;;42.50;26.40;;;;;;;9.93;50.63;101803.88;354986;27;1164;-60
2021/03/24 00:04:18;;;;;;;41.67;26.60;;;;;;;9.93;51.14;101803.88;355022;27;1080;-59
2021/03/24 00:04:29;;;;;;;44.97;26.75;;;;;;;9.93;50.82;101803.88;355027;27;1279;-60
2021/03/24 00:04:41;;;;;;;45.22;26.50;;;;;;;9.95;51.42;101807.34;355000;27;1076;-60
2021/03/24 00:04:52;;;;;;;44.75;26.27;;;;;;;9.95;50.97;101807.34;355034;27;1149;-60
2021/03/24 00:05:08;;;;;;;42.55;25.83;;;;;;;9.94;50.98;101802.94;355060;27;1040;-61
2021/03/24 00:05:22;;;;;;;41.88;26.08;;;;;;;9.95;50.48;101807.34;352730;27;72149;-60
2021/03/24 00:05:36;;;;;;;42.47;26.38;;;;;;;9.93;50.69;101811.81;354157;27;25151;-60
2021/03/24 00:05:50;;;;;;;43.88;27.08;;;;;;;9.91;50.70;101804.84;354209;27;24168;-59
2021/03/24 00:06:02;;;;;;;45.40;27.08;;;;;;;9.88;50.79;101807.53;354311;27;24013;-63
2021/03/24 00:06:14;;;;;;;44.65;26.60;;;;;;;9.86;50.53;101807.56;355015;27;1132;-60
2021/03/24 00:06:25;;;;;;;42.00;26.33;;;;;;;9.86;50.14;101807.56;355123;27;1091;-59
2021/03/24 00:06:37;;;;;;;41.72;26.40;;;;;;;9.87;50.49;101803.19;354979;27;1157;-59
2021/03/24 00:06:48;;;;;;;42.90;26.23;;;;;;;9.89;50.30;101807.50;355074;27;1092;-62
2021/03/24 00:06:59;;;;;;;45.46;26.50;;;;;;;9.88;51.04;101808.41;355110;27;1074;-60
2021/03/24 00:07:10;;;;;;;45.38;27.15;;;;;;;9.89;50.77;101814.53;354676;27;1686;-60
2021/03/24 00:07:22;;;;;;;42.70;26.55;;;;;;;9.85;50.55;101805.88;353628;27;1705;-60
2021/03/24 00:07:33;;;;;;;45.00;26.35;;;;;;;9.87;50.88;101816.38;355001;27;1196;-60
2021/03/24 00:07:45;;;;;;;46.20;26.02;;;;;;;9.85;50.81;101813.78;355107;27;1156;-60
2021/03/24 00:07:57;;;;;;;44.74;25.72;;;;;;;9.82;50.81;101812.09;355066;27;1254;-59
2021/03/24 00:08:08;;;;;;;42.75;25.83;;;;;;;9.82;50.40;101805.94;355063;27;1100;-62
2021/03/24 00:08:22;;;;;;;43.03;26.20;;;;;;;9.83;50.66;101807.66;355135;27;1077;-59
2021/03/24 00:08:33;;;;;;;42.22;25.85;;;;;;;9.82;50.59;101806.81;354968;27;1190;-59
2021/03/24 00:08:45;;;;;;;43.85;25.67;;;;;;;9.83;50.86;101807.66;355307;27;1125;-59
2021/03/24 00:08:56;;;;;;;43.22;26.23;;;;;;;9.81;50.98;101804.22;355389;27;1153;-59
2021/03/24 00:09:09;;;;;;;43.05;26.20;;;;;;;9.81;50.76;101804.22;355334;27;1166;-63
2021/03/24 00:09:21;;;;;;;43.05;26.55;;;;;;;9.80;51.07;101807.75;354486;27;24427;-60
2021/03/24 00:09:32;;;;;;;44.28;26.73;;;;;;;9.82;51.28;101806.81;355266;27;1068;-60
2021/03/24 00:09:43;;;;;;;45.90;27.45;;;;;;;9.80;51.31;101808.59;355314;27;1187;-60
2021/03/24 00:09:54;;;;;;;46.40;27.23;;;;;;;9.79;50.99;101806.00;353814;27;1065;-61
2021/03/24 00:10:08;;;;;;;45.65;27.02;;;;;;;9.79;51.20;101806.00;353876;27;1153;-61
2021/03/24 00:10:22;;;;;;;46.47;26.85;;;;;;;9.81;51.27;101805.06;352887;27;23903;-60
2021/03/24 00:10:35;;;;;;;47.03;27.70;;;;;;;9.83;50.69;101805.03;352962;27;25153;-59
2021/03/24 00:10:46;;;;;;;45.88;27.83;;;;;;;9.85;52.00;101811.16;353821;27;1164;-60
2021/03/24 00:10:57;;;;;;;46.58;27.60;;;;;;;9.76;51.33;101800.81;353841;27;2170;-60
2021/03/24 00:11:10;;;;;;;45.60;26.60;;;;;;;9.79;50.25;101806.00;353791;27;1134;-60
2021/03/24 00:11:21;;;;;;;44.90;26.23;;;;;;;9.76;50.43;101811.38;353716;27;1040;-59
2021/03/24 00:11:32;;;;;;;45.08;26.73;;;;;;;9.67;50.00;101816.00;353759;27;1555;-60
2021/03/24 00:11:44;;;;;;;44.03;26.50;;;;;;;9.59;50.22;101810.06;353800;27;1109;-60
2021/03/24 00:11:55;;;;;;;44.00;25.92;;;;;;;9.44;50.55;101810.44;353761;27;1281;-60
2021/03/24 00:12:06;;;;;;;44.42;25.92;;;;;;;9.34;50.31;101809.78;353816;27;1072;-60
2021/03/24 00:12:17;;;;;;;45.28;26.15;;;;;;;9.26;49.99;101814.38;354713;27;1212;-60
2021/03/24 00:12:29;;;;;;;45.42;27.23;;;;;;;9.32;50.85;101803.69;355357;27;2024;-60
2021/03/24 00:12:40;;;;;;;45.97;27.80;;;;;;;9.37;50.65;101809.72;355263;27;1060;-61
2021/03/24 00:12:52;;;;;;;45.47;27.42;;;;;;;9.43;50.27;101809.56;355398;27;1048;-62
2021/03/24 00:13:05;;;;;;;45.05;26.85;;;;;;;9.47;50.94;101805.09;355349;27;1044;-61
2021/03/24 00:13:17;;;;;;;46.33;26.88;;;;;;;9.49;50.67;101808.53;355293;27;1164;-60
2021/03/24 00:13:28;;;;;;;48.46;27.26;;;;;;;9.55;50.90;101813.66;355302;27;1287;-60
2021/03/24 00:13:39;;;;;;;46.42;27.75;;;;;;;9.55;50.37;101813.66;355349;27;1076;-60
2021/03/24 00:13:50;;;;;;;46.15;27.70;;;;;;;9.50;49.86;101815.56;353795;27;1244;-61
2021/03/24 00:14:03;;;;;;;45.30;27.63;;;;;;;9.42;50.22;101810.47;353737;27;1080;-60
2021/03/24 00:14:15;;;;;;;44.60;27.17;;;;;;;9.39;51.15;101807.06;353795;27;1141;-62
2021/03/24 00:14:26;;;;;;;45.50;27.45;;;;;;;9.43;50.59;101811.34;353732;27;1164;-60
2021/03/24 00:14:37;;;;;;;46.30;27.38;;;;;;;9.49;51.17;101816.44;353775;27;1167;-60
2021/03/24 00:14:48;;;;;;;48.60;27.52;;;;;;;9.51;51.23;101812.88;353856;27;1170;-60
2021/03/24 00:14:59;;;;;;;46.08;27.15;;;;;;;9.50;50.96;101815.56;353700;27;1075;-58
2021/03/24 00:15:12;;;;;;;47.08;27.15;;;;;;;9.52;50.77;101805.84;353807;27;1093;-62
2021/03/24 00:15:25;;;;;;;46.83;27.08;;;;;;;9.55;51.16;101813.66;353773;27;1203;-60
2021/03/24 00:15:37;;;;;;;46.83;27.08;;;;;;;9.60;51.10;101813.53;352960;27;24164;-60
2021/03/24 00:15:49;;;;;;;48.22;27.27;;;;;;;9.62;51.25;101819.66;354686;27;1084;-60
2021/03/24 00:16:03;;;;;;;48.97;27.27;;;;;;;9.64;51.45;101816.09;355196;27;1065;-60
2021/03/24 00:16:15;;;;;;;47.22;27.00;;;;;;;9.66;51.74;101816.03;354534;27;24036;-60
2021/03/24 00:16:26;;;;;;;45.35;26.80;;;;;;;9.68;51.75;101814.22;355303;27;1200;-60
2021/03/24 00:16:37;;;;;;;45.17;26.88;;;;;;;9.70;51.62;101811.53;355321;27;1195;-60
2021/03/24 00:16:49;;;;;;;47.35;27.73;;;;;;;9.71;51.42;101814.13;355256;27;1105;-60
2021/03/24 00:17:00;;;;;;;49.08;28.13;;;;;;;9.70;51.59;101806.25;355274;27;1076;-60
2021/03/24 00:17:11;;;;;;;48.64;28.12;;;;;;;9.69;51.34;101813.31;355357;27;1182;-60
2021/03/24 00:17:23;;;;;;;46.42;27.48;;;;;;;9.68;51.23;101814.22;355325;27;1175;-60
2021/03/24 00:17:34;;;;;;;47.80;27.70;;;;;;;9.67;51.83;101812.47;355256;27;1113;-60
2021/03/24 00:17:46;;;;;;;45.78;27.27;;;;;;;9.67;51.42;101807.19;355206;27;1010;-60
2021/03/24 00:17:57;;;;;;;45.53;27.27;;;;;;;9.67;50.92;101812.47;354156;27;1493;-61
2021/03/24 00:18:10;;;;;;;43.63;26.88;;;;;;;9.67;51.42;101813.34;355051;27;1875;-60
2021/03/24 00:18:21;;;;;;;42.50;26.67;;;;;;;9.68;51.65;101809.81;355326;27;1218;-60
2021/03/24 00:18:33;;;;;;;41.53;25.88;;;;;;;9.68;51.47;101809.81;355321;27;1142;-60
2021/03/24 00:18:44;;;;;;;43.38;25.92;;;;;;;9.68;51.68;101807.19;355210;27;1162;-60
2021/03/24 00:18:55;;;;;;;44.53;26.23;;;;;;;9.70;51.78;101811.53;354407;27;1724;-61
2021/03/24 00:19:07;;;;;;;45.28;27.04;;;;;;;9.72;51.34;101815.00;353915;27;1017;-60
2021/03/24 00:19:18;;;;;;;45.35;27.33;;;;;;;9.72;51.31;101817.66;353764;27;1140;-59
2021/03/24 00:19:39;;;;;;;47.10;27.63;;;;;;;9.71;52.00;101810.63;351344;27;71808;-60
2021/03/24 00:19:51;;;;;;;45.35;27.42;;;;;;;9.66;51.43;101805.47;353829;27;1188;-60
2021/03/24 00:20:10;;;;;;;43.08;27.08;;;;;;;9.66;51.22;101810.75;353916;27;1117;-60
2021/03/24 00:20:25;;;;;;;45.42;26.98;;;;;;;9.66;51.28;101811.63;351483;27;72359;-59
2021/03/24 00:20:39;;;;;;;47.47;27.08;;;;;;;9.67;51.39;101808.09;352190;27;46989;-60
2021/03/24 00:20:51;;;;;;;47.05;27.20;;;;;;;9.66;51.34;101806.34;353053;27;25373;-62
2021/03/24 00:21:03;;;;;;;46.67;26.88;;;;;;;9.68;51.34;101807.19;353876;27;1201;-62
2021/03/24 00:21:15;;;;;;;48.28;26.52;;;;;;;9.68;50.99;101807.19;353875;27;1088;-60
2021/03/24 00:21:26;;;;;;;47.08;26.65;;;;;;;9.72;51.14;101815.00;353951;27;1093;-60
2021/03/24 00:21:37;;;;;;;45.55;26.92;;;;;;;9.71;51.78;101813.25;353772;27;1117;-60
2021/03/24 00:21:48;;;;;;;43.75;26.92;;;;;;;9.68;51.29;101807.19;353904;27;1069;-61
2021/03/24 00:22:00;;;;;;;45.45;27.08;;;;;;;9.67;51.86;101805.44;353876;27;1267;-60
2021/03/24 00:22:11;;;;;;;46.22;27.05;;;;;;;9.67;51.78;101804.56;353895;27;1080;-60
2021/03/24 00:22:23;;;;;;;45.72;26.98;;;;;;;9.65;51.94;101807.25;353975;27;1083;-61
2021/03/24 00:22:34;;;;;;;44.48;26.90;;;;;;;9.67;51.60;101807.19;353849;27;1135;-60
2021/03/24 00:22:45;;;;;;;44.60;27.10;;;;;;;9.64;51.67;101802.00;353829;27;1107;-62
2021/03/24 00:22:57;;;;;;;44.75;27.38;;;;;;;9.63;51.11;101803.78;353903;27;1234;-60
2021/03/24 00:23:08;;;;;;;44.97;27.17;;;;;;;9.63;51.54;101801.16;353893;27;1090;-62
2021/03/24 00:23:21;;;;;;;44.52;26.86;;;;;;;9.63;51.74;101806.44;353841;27;1407;-60
2021/03/24 00:23:33;;;;;;;45.78;27.10;;;;;;;9.62;51.56;101799.41;353886;27;1085;-60
2021/03/24 00:23:44;;;;;;;47.58;27.52;;;;;;;9.60;51.06;101809.16;353893;27;1171;-60
2021/03/24 00:23:55;;;;;;;47.95;27.33;;;;;;;9.57;51.11;101800.44;353914;27;1072;-64
2021/03/24 00:24:07;;;;;;;47.03;27.13;;;;;;;9.53;50.90;101810.19;353898;27;1125;-60
2021/03/24 00:24:18;;;;;;;48.05;27.67;;;;;;;9.52;50.84;101811.13;353835;27;1065;-59
2021/03/24 00:24:29;;;;;;;46.75;27.70;;;;;;;9.55;51.64;101805.75;353914;27;1160;-67
2021/03/24 00:24:40;;;;;;;44.38;27.13;;;;;;;9.57;51.71;101803.94;353841;27;1133;-60
2021/03/24 00:24:51;;;;;;;42.13;26.63;;;;;;;9.52;51.16;101803.22;352349;28;1108;-62
2021/03/24 00:25:03;;;;;;;41.25;26.00;;;;;;;9.53;51.39;101802.28;352354;28;1157;-63
2021/03/24 00:25:16;;;;;;;42.70;27.05;;;;;;;9.53;51.63;101810.19;352253;28;1133;-60
2021/03/24 00:25:27;;;;;;;45.00;27.23;;;;;;;9.50;51.00;101805.00;352340;28;1208;-59
2021/03/24 00:25:39;;;;;;;46.40;27.40;;;;;;;9.46;51.40;101806.00;352410;28;1096;-59
2021/03/24 00:25:51;;;;;;;46.42;27.27;;;;;;;9.45;51.13;101809.53;352268;28;1220;-61
2021/03/24 00:26:02;;;;;;;45.55;27.42;;;;;;;9.47;50.96;101805.94;352289;28;1982;-62
2021/03/24 00:26:13;;;;;;;45.05;26.95;;;;;;;9.49;51.72;101811.19;352311;28;2036;-60
2021/03/24 00:26:25;;;;;;;44.22;26.75;;;;;;;9.47;51.00;101800.66;352399;28;1216;-60
2021/03/24 00:26:36;;;;;;;41.58;26.40;;;;;;;9.49;51.68;101805.91;352375;28;1060;-61
2021/03/24 00:26:47;;;;;;;42.24;26.50;;;;;;;9.48;51.50;101806.84;352279;28;1073;-59
2021/03/24 00:26:58;;;;;;;43.00;26.58;;;;;;;9.47;51.28;101805.09;352348;28;1097;-59
2021/03/24 00:27:09;;;;;;;45.03;26.98;;;;;;;9.45;50.93;101801.59;352345;28;1247;-59
2021/03/24 00:27:20;;;;;;;45.80;27.50;;;;;;;9.46;51.32;101806.84;352372;28;1137;-59
2021/03/24 00:27:31;;;;;;;45.83;27.42;;;;;;;9.48;51.87;101804.19;352641;28;1057;-59
2021/03/24 00:27:43;;;;;;;45.67;28.08;;;;;;;9.48;51.58;101806.84;353941;27;1093;-59
2021/03/24 00:27:55;;;;;;;45.08;28.63;;;;;;;9.45;51.17;101806.88;353783;27;1153;-60
2021/03/24 00:28:08;;;;;;;44.55;28.35;;;;;;;9.46;51.80;101806.84;353891;27;1129;-60
2021/03/24 00:28:20;;;;;;;45.35;28.17;;;;;;;9.50;52.55;101803.22;353071;27;25202;-60
2021/03/24 00:28:31;;;;;;;45.35;27.88;;;;;;;9.50;51.28;101810.28;353740;27;1769;-59
2021/03/24 00:28:43;;;;;;;46.15;28.10;;;;;;;9.49;52.01;101809.44;354348;27;1845;-59
2021/03/24 00:28:54;;;;;;;46.03;27.92;;;;;;;9.48;51.25;101797.13;355242;27;1069;-60
2021/03/24 00:29:05;;;;;;;46.28;27.38;;;;;;;9.47;51.16;101810.38;355234;27;1234;-60
2021/03/24 00:29:16;;;;;;;46.17;26.98;;;;;;;9.46;51.84;101806.00;355279;27;1093;-60
2021/03/24 00:29:27;;;;;;;45.03;27.00;;;;;;;9.48;51.35;101812.09;355328;27;1242;-59
2021/03/24 00:29:38;;;;;;;47.08;27.80;;;;;;;9.47;52.07;101807.72;355134;27;1280;-59
2021/03/24 00:29:50;;;;;;;46.70;28.48;;;;;;;9.43;51.41;101808.72;355306;27;1131;-60
2021/03/24 00:30:03;;;;;;;46.83;28.45;;;;;;;9.41;51.67;101807.88;355165;27;1356;-60
2021/03/24 00:30:18;;;;;;;45.72;28.08;;;;;;;9.45;51.74;101806.88;355313;27;1149;-61
2021/03/24 00:30:36;;;;;;;46.17;27.92;;;;;;;9.46;51.75;101804.19;353705;27;49278;-59
2021/03/24 00:30:48;;;;;;;47.70;28.83;;;;;;;9.49;52.05;101809.44;352837;27;71713;-60
2021/03/24 00:30:59;;;;;;;45.58;28.77;;;;;;;9.50;51.61;101808.50;355204;27;1022;-61
2021/03/24 00:31:11;;;;;;;45.15;28.52;;;;;;;9.44;51.34;101802.53;355345;27;1069;-60
2021/03/24 00:31:22;;;;;;;45.63;28.40;;;;;;;9.39;51.01;101807.91;355175;27;1298;-60
2021/03/24 00:31:34;;;;;;;46.10;28.30;;;;;;;9.43;51.48;101812.19;354554;27;1725;-59
2021/03/24 00:31:45;;;;;;;47.50;29.02;;;;;;;9.46;51.86;101809.47;353892;27;1076;-60
2021/03/24 00:31:57;;;;;;;47.72;29.10;;;;;;;9.50;51.99;101807.63;353735;27;1162;-60
2021/03/24 00:32:09;;;;;;;47.38;29.15;;;;;;;9.51;51.96;101804.97;353893;27;1186;-60
2021/03/24 00:32:20;;;;;;;46.35;28.92;;;;;;;9.55;51.72;101807.50;353893;27;1105;-60
2021/03/24 00:32:31;;;;;;;47.40;28.83;;;;;;;9.56;51.98;101806.63;353914;27;1183;-60
2021/03/24 00:32:43;;;;;;;48.00;29.05;;;;;;;9.52;51.39;101805.84;353832;27;1173;-60
2021/03/24 00:32:55;;;;;;;47.63;28.50;;;;;;;9.41;51.19;101807.88;352298;28;1081;-60
2021/03/24 00:33:08;;;;;;;46.15;28.27;;;;;;;9.34;51.83;101815.06;352349;28;1223;-60
2021/03/24 00:33:24;;;;;;;45.05;27.90;;;;;;;9.32;52.05;101801.91;352339;28;1310;-66
2021/03/24 00:33:35;;;;;;;45.70;28.90;;;;;;;9.34;51.87;101810.69;350039;28;69571;-60
2021/03/24 00:33:46;;;;;;;46.40;28.90;;;;;;;9.38;52.19;101811.44;352305;28;1092;-60
2021/03/24 00:33:58;;;;;;;48.03;29.02;;;;;;;9.40;51.78;101808.78;352331;28;1084;-60
2021/03/24 00:34:09;;;;;;;48.25;29.02;;;;;;;9.40;52.25;101809.66;352387;28;1108;-60
2021/03/24 00:34:20;;;;;;;48.40;28.92;;;;;;;9.36;50.83;101807.13;352264;28;1088;-60
2021/03/24 00:34:31;;;;;;;47.08;28.38;;;;;;;9.33;51.69;101806.28;352353;28;1138;-60
2021/03/24 00:34:43;;;;;;;47.47;28.55;;;;;;;9.35;51.46;101816.81;352361;28;1151;-60
2021/03/24 00:34:54;;;;;;;47.03;28.88;;;;;;;9.37;52.01;101806.22;353765;27;1237;-60
2021/03/24 00:35:07;;;;;;;47.88;29.67;;;;;;;9.31;51.30;101812.50;353731;27;1977;-62
2021/03/24 00:35:19;;;;;;;48.75;29.33;;;;;;;9.34;51.20;101812.41;353901;27;1077;-62
2021/03/24 00:35:31;;;;;;;47.38;29.02;;;;;;;9.31;51.48;101809.88;353793;27;1085;-61
2021/03/24 00:35:42;;;;;;;48.28;29.13;;;;;;;9.27;51.45;101813.50;353900;27;1184;-59
2021/03/24 00:35:54;;;;;;;47.17;29.13;;;;;;;9.22;51.50;101815.34;352365;28;1049;-60
2021/03/24 00:36:05;;;;;;;46.00;28.70;;;;;;;9.23;51.75;101809.19;352328;28;1167;-61
2021/03/24 00:36:17;;;;;;;45.58;28.45;;;;;;;9.25;51.43;101810.88;352347;28;1151;-60
2021/03/24 00:36:28;;;;;;;48.95;29.23;;;;;;;9.22;51.52;101805.69;352272;28;1228;-59
2021/03/24 00:36:39;;;;;;;49.58;30.00;;;;;;;9.23;51.59;101806.56;352362;28;1378;-59
2021/03/24 00:36:51;;;;;;;47.92;30.15;;;;;;;9.26;51.78;101812.63;350942;28;1114;-59
2021/03/24 00:37:02;;;;;;;47.20;29.58;;;;;;;9.28;51.16;101810.81;350923;28;1139;-60
2021/03/24 00:37:13;;;;;;;46.42;28.56;;;;;;;9.21;51.12;101813.66;350960;28;2174;-62
2021/03/24 00:37:24;;;;;;;47.10;28.70;;;;;;;9.20;51.60;101810.13;350831;28;1106;-59
2021/03/24 00:37:36;;;;;;;46.85;29.10;;;;;;;9.23;52.47;101806.56;350985;28;1152;-60
2021/03/24 00:37:48;;;;;;;47.17;29.20;;;;;;;9.28;52.29;101813.44;351215;28;1094;-59
2021/03/24 00:38:00;;;;;;;47.75;29.50;;;;;;;9.29;51.55;101811.69;352341;28;1079;-60
2021/03/24 00:38:12;;;;;;;48.17;29.63;;;;;;;9.31;52.12;101807.22;352370;28;1056;-61
2021/03/24 00:38:24;;;;;;;47.63;29.42;;;;;;;9.34;52.12;101813.31;352293;28;1136;-59
2021/03/24 00:38:36;;;;;;;46.80;29.65;;;;;;;9.37;52.27;101811.47;352370;28;1176;-59
2021/03/24 00:38:47;;;;;;;49.08;29.83;;;;;;;9.33;51.83;101811.56;353180;27;1085;-59
2021/03/24 00:38:58;;;;;;;49.33;29.77;;;;;;;9.33;51.70;101808.94;353900;27;1171;-59
2021/03/24 00:39:09;;;;;;;50.17;29.95;;;;;;;9.37;52.03;101812.38;353559;27;2232;-61
2021/03/24 00:39:20;;;;;;;50.16;29.74;;;;;;;9.36;52.21;101813.28;354796;27;1789;-59
2021/03/24 00:39:31;;;;;;;50.38;29.85;;;;;;;9.36;51.60;101801.88;353860;27;1176;-59
2021/03/24 00:39:42;;;;;;;49.55;29.58;;;;;;;9.42;51.71;101820.16;353870;27;1084;-61
2021/03/24 00:39:53;;;;;;;49.53;29.88;;;;;;;9.37;51.34;101807.09;353868;27;1080;-62
2021/03/24 00:40:12;;;;;;;49.38;30.00;;;;;;;9.40;52.30;101814.91;353898;27;1175;-59
2021/03/24 00:40:28;;;;;;;48.05;29.90;;;;;;;9.41;51.89;101818.41;351429;27;71794;-60
2021/03/24 00:40:46;;;;;;;47.83;29.88;;;;;;;9.36;51.41;101812.41;351440;27;71807;-60
2021/03/24 00:40:59;;;;;;;46.80;29.85;;;;;;;9.38;51.58;101815.88;351436;27;72198;-59
2021/03/24 00:41:10;;;;;;;48.28;29.60;;;;;;;9.28;51.41;101810.81;353663;27;1210;-60
2021/03/24 00:41:21;;;;;;;48.47;29.60;;;;;;;9.18;51.27;101819.88;353891;27;1186;-60
2021/03/24 00:41:32;;;;;;;48.15;29.50;;;;;;;9.09;51.12;101814.78;353881;27;1076;-61
2021/03/24 00:41:43;;;;;;;49.95;29.63;;;;;;;9.15;51.86;101818.16;353883;27;1317;-60
2021/03/24 00:41:55;;;;;;;50.75;30.33;;;;;;;9.16;51.59;101819.00;353904;27;1068;-60
2021/03/24 00:42:06;;;;;;;49.65;30.65;;;;;;;9.16;51.47;101819.91;353739;27;1143;-60
2021/03/24 00:42:17;;;;;;;49.30;30.83;;;;;;;9.20;51.77;101815.41;353919;27;1380;-60
2021/03/24 00:42:28;;;;;;;49.15;30.50;;;;;;;9.23;52.00;101823.25;353855;27;1412;-60
2021/03/24 00:42:40;;;;;;;48.47;30.13;;;;;;;9.28;52.56;101817.88;353913;27;1076;-60
2021/03/24 00:42:51;;;;;;;47.55;29.83;;;;;;;9.24;52.42;101822.34;353833;27;1232;-60
2021/03/24 00:43:04;;;;;;;47.70;29.75;;;;;;;9.22;51.46;101815.34;352282;28;1085;-59
2021/03/24 00:43:16;;;;;;;48.78;29.75;;;;;;;9.22;51.87;101821.53;351532;28;24187;-60
2021/03/24 00:43:28;;;;;;;49.40;30.08;;;;;;;9.28;52.23;101817.88;352340;28;1142;-59
2021/03/24 00:43:39;;;;;;;51.38;31.10;;;;;;;9.29;52.67;101812.53;352304;28;1125;-60
2021/03/24 00:43:50;;;;;;;50.67;31.10;;;;;;;9.32;52.41;101823.00;352368;28;1166;-59
2021/03/24 00:44:01;;;;;;;50.47;30.90;;;;;;;9.31;52.80;101813.41;352249;28;1100;-59
2021/03/24 00:44:13;;;;;;;48.88;30.50;;;;;;;9.34;52.28;101813.31;352357;28;1092;-60
2021/03/24 00:44:24;;;;;;;47.13;29.90;;;;;;;9.38;52.62;101815.88;352355;28;1037;-60
2021/03/24 00:44:35;;;;;;;46.40;29.35;;;;;;;9.41;52.44;101814.03;352326;28;1905;-62
2021/03/24 00:44:46;;;;;;;48.56;29.44;;;;;;;9.36;51.88;101818.53;352385;28;1122;-61
2021/03/24 00:44:58;;;;;;;49.70;29.38;;;;;;;9.34;52.05;101815.94;352774;27;1176;-60
2021/03/24 00:45:09;;;;;;;50.70;29.50;;;;;;;9.36;52.67;101815.06;353861;27;1076;-62
2021/03/24 00:45:21;;;;;;;48.95;29.63;;;;;;;9.30;51.61;101814.28;353832;27;1065;-60
2021/03/24 00:45:36;;;;;;;48.53;29.52;;;;;;;9.29;51.41;101817.81;353916;27;1080;-60
2021/03/24 00:45:47;;;;;;;48.58;29.75;;;;;;;9.27;51.48;101818.75;351396;27;71795;-60
2021/03/24 00:45:58;;;;;;;48.42;30.13;;;;;;;9.23;52.06;101818.00;353870;27;1101;-60
2021/03/24 00:46:10;;;;;;;47.45;30.15;;;;;;;9.26;51.85;101815.28;353803;27;1129;-60
2021/03/24 00:46:21;;;;;;;48.72;30.20;;;;;;;9.29;51.82;101812.53;353751;27;1951;-63
2021/03/24 00:46:32;;;;;;;48.80;30.02;;;;;;;9.27;51.66;101811.75;353846;27;1296;-60
2021/03/24 00:46:43;;;;;;;47.88;29.67;;;;;;;9.21;51.70;101814.50;353861;27;1025;-60
2021/03/24 00:46:56;;;;;;;47.70;29.20;;;;;;;9.19;51.47;101818.97;353780;27;1076;-61
2021/03/24 00:47:08;;;;;;;46.70;29.17;;;;;;;9.19;51.62;101820.72;353853;27;1143;-61
2021/03/24 00:47:19;;;;;;;46.92;29.58;;;;;;;9.14;51.83;101812.94;353853;27;1153;-60
2021/03/24 00:47:30;;;;;;;46.50;29.40;;;;;;;9.19;52.11;101818.06;353876;27;1346;-59
2021/03/24 00:47:42;;;;;;;45.55;28.92;;;;;;;9.24;52.25;101813.56;353812;27;1085;-60
2021/03/24 00:47:53;;;;;;;44.95;28.65;;;;;;;9.19;51.52;101816.31;353878;27;2150;-60
2021/03/24 00:48:08;;;;;;;44.83;28.60;;;;;;;9.15;51.48;101817.31;353904;27;1088;-61
2021/03/24 00:48:26;;;;;;;46.22;29.38;;;;;;;9.19;51.76;101810.16;350808;28;46027;-63
2021/03/24 00:48:37;;;;;;;45.80;29.75;;;;;;;9.22;51.97;101818.88;349855;28;72048;-60
2021/03/24 00:48:49;;;;;;;46.10;29.55;;;;;;;9.24;51.98;101818.84;352341;28;1195;-60
2021/03/24 00:49:00;;;;;;;47.05;29.42;;;;;;;9.28;52.64;101812.59;352340;28;1133;-60
2021/03/24 00:49:11;;;;;;;46.95;29.08;;;;;;;9.27;52.09;101819.66;352367;28;2137;-60
2021/03/24 00:49:24;;;;;;;48.05;29.50;;;;;;;9.26;51.67;101819.66;352337;28;1076;-60
2021/03/24 00:49:35;;;;;;;45.72;29.00;;;;;;;9.27;52.49;101811.75;352184;28;1356;-60
2021/03/24 00:49:46;;;;;;;47.20;29.25;;;;;;;9.26;51.91;101812.63;352295;28;1750;-60
2021/03/24 00:50:18;;;;;;;48.08;30.25;;;;;;;9.21;51.94;101818.91;349948;28;70314;-61
2021/03/24 00:50:30;;;;;;;49.58;30.17;;;;;;;9.18;51.45;101819.88;350630;28;49476;-59
2021/03/24 00:50:42;;;;;;;50.60;30.33;;;;;;;9.19;52.48;101820.72;352377;28;1052;-61
2021/03/24 00:50:55;;;;;;;51.28;30.50;;;;;;;9.21;52.37;101818.91;352412;28;1334;-60
2021/03/24 00:51:07;;;;;;;50.97;30.60;;;;;;;9.20;52.20;101820.66;353822;27;1127;-62
2021/03/24 00:51:18;;;;;;;49.00;30.10;;;;;;;9.18;51.94;101814.59;353715;27;2503;-61
2021/03/24 00:51:29;;;;;;;47.75;29.85;;;;;;;9.17;51.73;101818.13;353715;27;1083;-60
2021/03/24 00:51:40;;;;;;;48.30;30.13;;;;;;;9.17;52.11;101820.75;353824;27;1130;-61
2021/03/24 00:51:51;;;;;;;48.40;30.50;;;;;;;9.21;52.58;101821.56;353848;27;1142;-63
2021/03/24 00:52:03;;;;;;;49.13;30.77;;;;;;;9.24;52.60;101818.84;353879;27;2028;-59
2021/03/24 00:52:14;;;;;;;49.28;30.73;;;;;;;9.27;52.78;101819.66;353811;27;1308;-60
2021/03/24 00:52:25;;;;;;;50.20;31.15;;;;;;;9.28;52.66;101818.72;353753;27;1364;-60
2021/03/24 00:52:37;;;;;;;48.72;30.83;;;;;;;9.31;52.78;101817.78;353894;27;1158;-58
2021/03/24 00:52:48;;;;;;;46.00;29.67;;;;;;;9.29;53.20;101811.69;353864;27;1102;-60
2021/03/24 00:52:59;;;;;;;45.63;29.48;;;;;;;9.31;52.24;101815.16;353838;27;1160;-59
2021/03/24 00:53:10;;;;;;;46.75;29.83;;;;;;;9.31;52.25;101818.66;353828;27;1232;-60
2021/03/24 00:53:22;;;;;;;47.85;30.20;;;;;;;9.30;52.39;101818.69;353704;27;1071;-60
2021/03/24 00:53:33;;;;;;;49.15;30.85;;;;;;;9.30;52.82;101814.28;353847;27;1072;-60
2021/03/24 00:53:44;;;;;;;50.60;30.83;;;;;;;9.31;52.60;101815.16;353906;27;1073;-60
2021/03/24 00:53:55;;;;;;;50.25;30.40;;;;;;;9.29;52.67;101822.25;352301;28;1216;-60
2021/03/24 00:54:07;;;;;;;52.22;30.73;;;;;;;9.28;52.58;101815.22;352328;28;1355;-60
2021/03/24 00:54:18;;;;;;;54.28;30.65;;;;;;;9.31;52.75;101818.66;352208;28;1140;-60
2021/03/24 00:54:29;;;;;;;53.05;30.38;;;;;;;9.24;52.48;101814.41;352341;28;1226;-60
2021/03/24 00:54:40;;;;;;;51.75;30.33;;;;;;;9.24;52.49;101816.22;352342;28;1132;-60
2021/03/24 00:54:51;;;;;;;48.88;30.23;;;;;;;9.27;52.59;101813.50;352312;28;1061;-60
2021/03/24 00:55:03;;;;;;;48.67;30.08;;;;;;;9.27;52.84;101818.75;352373;28;1142;-60
2021/03/24 00:55:15;;;;;;;48.15;29.95;;;;;;;9.27;52.70;101813.50;352308;28;1123;-60
2021/03/24 00:55:26;;;;;;;49.92;29.80;;;;;;;9.29;52.63;101815.19;352331;28;1156;-59
2021/03/24 00:55:38;;;;;;;49.20;29.38;;;;;;;9.32;53.05;101814.25;352326;28;1052;-60
2021/03/24 00:55:50;;;;;;;49.33;29.55;;;;;;;9.36;53.03;101815.06;352560;27;1049;-60
2021/03/24 00:56:01;;;;;;;48.58;29.95;;;;;;;9.34;52.54;101812.41;353781;27;1154;-60
2021/03/24 00:56:12;;;;;;;47.55;29.77;;;;;;;9.34;52.91;101807.16;353826;27;1069;-59
2021/03/24 00:56:24;;;;;;;47.67;30.00;;;;;;;9.34;52.59;101813.31;353828;27;1017;-60
2021/03/24 00:56:35;;;;;;;46.75;30.00;;;;;;;9.34;52.71;101813.31;353881;27;1141;-60